createdAt,value
2018-12-02T00:00:28.337Z,8.00
2018-12-02T00:02:56.547Z,8.17
2018-12-02T00:05:25.284Z,9.07
2018-12-02T00:07:53.446Z,8.67
2018-12-02T00:10:22.082Z,8.47
2018-12-02T00:12:50.862Z,8.63
2018-12-02T00:15:22.007Z,8.43
2018-12-02T00:17:51.442Z,8.33
2018-12-02T00:31:58.841Z,8.60
2018-12-02T00:34:27.005Z,8.30
2018-12-02T00:36:55.165Z,8.43
2018-12-02T00:39:23.333Z,8.20
2018-12-02T00:41:51.493Z,8.20
2018-12-02T00:44:19.684Z,8.50
2018-12-02T00:46:47.837Z,8.23
2018-12-02T00:49:16.022Z,8.37
2018-12-02T00:51:44.193Z,9.00
2018-12-02T00:54:12.353Z,9.07
2018-12-02T00:56:40.525Z,8.97
2018-12-02T00:59:08.709Z,9.20
2018-12-02T01:01:36.890Z,9.37
2018-12-02T01:04:05.277Z,9.03
2018-12-02T01:06:33.505Z,9.47
2018-12-02T01:09:01.658Z,9.17
2018-12-02T01:11:29.819Z,9.23
2018-12-02T01:13:58.077Z,9.40
2018-12-02T01:16:26.249Z,8.77
2018-12-02T01:18:54.458Z,9.27
2018-12-02T01:21:22.625Z,9.57
2018-12-02T01:23:50.780Z,9.33
2018-12-02T01:26:18.938Z,8.80
2018-12-02T01:28:47.130Z,8.87
2018-12-02T01:31:15.297Z,9.20
2018-12-02T01:33:43.456Z,9.00
2018-12-02T01:36:11.669Z,9.03
2018-12-02T01:38:39.832Z,9.40
2018-12-02T01:41:08.030Z,9.83
2018-12-02T01:43:36.201Z,8.87
2018-12-02T01:46:04.416Z,9.10
2018-12-02T01:48:32.590Z,8.90
2018-12-02T01:51:00.757Z,8.60
2018-12-02T01:53:28.941Z,9.37
2018-12-02T01:55:57.109Z,9.40
2018-12-02T01:58:25.292Z,10.33
2018-12-02T02:00:53.485Z,10.50
2018-12-02T02:03:21.752Z,9.97
2018-12-02T02:05:49.925Z,9.50
2018-12-02T02:08:18.110Z,10.03
2018-12-02T02:10:46.276Z,9.57
2018-12-02T02:13:14.460Z,10.63
2018-12-02T02:15:42.628Z,10.30
2018-12-02T02:18:10.840Z,10.43
2018-12-02T02:20:39.015Z,9.80
2018-12-02T02:23:07.357Z,9.83
2018-12-02T02:25:35.529Z,9.97
2018-12-02T02:28:03.707Z,10.30
2018-12-02T02:30:31.889Z,9.80
2018-12-02T02:33:00.088Z,10.10
2018-12-02T02:35:28.257Z,10.10
2018-12-02T02:37:57.516Z,10.40
2018-12-02T02:40:26.861Z,10.20
2018-12-02T02:42:55.031Z,9.80
2018-12-02T02:45:23.200Z,9.90
2018-12-02T02:47:51.357Z,9.50
2018-12-02T02:50:21.387Z,10.03
2018-12-02T02:52:51.634Z,9.70
2018-12-02T02:55:19.798Z,10.83
2018-12-02T02:57:47.976Z,10.27
2018-12-02T03:00:21.178Z,11.00
2018-12-02T03:02:49.422Z,10.97
2018-12-02T03:05:17.803Z,10.80
2018-12-02T03:07:45.969Z,10.73
2018-12-02T03:10:19.129Z,10.50
2018-12-02T03:12:48.248Z,10.77
2018-12-02T03:15:17.335Z,11.03
2018-12-02T03:17:45.516Z,11.80
2018-12-02T03:20:16.817Z,11.07
2018-12-02T03:22:46.911Z,10.70
2018-12-02T03:25:16.071Z,10.80
2018-12-02T03:27:44.249Z,11.00
2018-12-02T03:30:18.083Z,11.00
2018-12-02T03:32:46.490Z,11.90
2018-12-02T03:35:29.696Z,11.93
2018-12-02T03:37:57.867Z,11.90
2018-12-02T03:40:28.783Z,11.57
2018-12-02T03:42:57.097Z,11.43
2018-12-02T03:45:26.151Z,11.67
2018-12-02T03:47:54.334Z,11.30
2018-12-02T03:50:23.299Z,11.87
2018-12-02T03:52:51.474Z,11.80
2018-12-02T03:55:19.649Z,12.80
2018-12-02T03:57:48.440Z,12.50
2018-12-02T04:00:18.453Z,13.07
2018-12-02T04:02:46.629Z,12.60
2018-12-02T04:05:15.870Z,12.50
2018-12-02T04:07:44.059Z,13.63
2018-12-02T04:10:15.003Z,13.80
2018-12-02T04:12:43.434Z,13.97
2018-12-02T04:15:14.213Z,13.10
2018-12-02T04:17:42.868Z,13.33
2018-12-02T04:20:20.521Z,13.13
2018-12-02T04:22:49.590Z,13.20
2018-12-02T04:25:19.770Z,13.63
2018-12-02T04:27:47.937Z,12.90
2018-12-02T04:30:16.897Z,13.63
2018-12-02T04:32:45.542Z,13.80
2018-12-02T04:35:18.763Z,13.20
2018-12-02T04:37:46.917Z,13.60
2018-12-02T04:40:15.302Z,13.63
2018-12-02T04:42:43.556Z,14.17
2018-12-02T04:45:14.593Z,13.50
2018-12-02T04:47:42.877Z,13.20
2018-12-02T04:50:18.605Z,12.90
2018-12-02T04:52:46.775Z,13.27
2018-12-02T04:55:15.003Z,13.03
2018-12-02T04:57:43.149Z,13.20
2018-12-02T05:00:18.974Z,14.00
2018-12-02T05:02:48.197Z,13.00
2018-12-02T05:05:17.615Z,13.23
2018-12-02T05:07:45.774Z,13.80
2018-12-02T05:10:15.696Z,13.40
2018-12-02T05:12:43.949Z,13.17
2018-12-02T05:15:12.991Z,12.80
2018-12-02T05:17:41.149Z,13.80
2018-12-02T05:20:14.748Z,13.40
2018-12-02T05:22:42.948Z,13.60
2018-12-02T05:25:17.664Z,13.73
2018-12-02T05:27:41.119Z,14.20
2018-12-02T05:30:16.134Z,13.67
2018-12-02T05:32:44.900Z,13.20
2018-12-02T05:35:13.816Z,13.60
2018-12-02T05:37:41.986Z,13.50
2018-12-02T05:40:11.385Z,14.20
2018-12-02T05:42:39.668Z,13.93
2018-12-02T05:45:11.045Z,13.50
2018-12-02T05:47:39.218Z,13.17
2018-12-02T05:50:11.811Z,13.20
2018-12-02T05:52:40.123Z,12.77
2018-12-02T05:55:10.322Z,12.93
2018-12-02T05:57:38.490Z,13.60
2018-12-02T06:00:12.592Z,13.20
2018-12-02T06:02:40.774Z,12.90
2018-12-02T06:05:10.277Z,13.30
2018-12-02T06:07:38.503Z,13.77
2018-12-02T06:10:10.407Z,13.17
2018-12-02T06:12:38.738Z,12.80
2018-12-02T06:15:09.591Z,13.10
2018-12-02T06:17:38.058Z,12.90
2018-12-02T06:20:14.113Z,12.70
2018-12-02T06:22:42.405Z,13.30
2018-12-02T06:25:10.707Z,12.97
2018-12-02T06:27:39.089Z,13.73
2018-12-02T06:30:11.642Z,12.50
2018-12-02T06:32:39.812Z,12.60
2018-12-02T06:35:09.436Z,13.00
2018-12-02T06:37:37.602Z,13.13
2018-12-02T06:40:21.396Z,12.60
2018-12-02T06:42:49.718Z,12.80
2018-12-02T06:45:17.923Z,12.70
2018-12-02T06:47:46.145Z,13.10
2018-12-02T06:50:18.432Z,12.37
2018-12-02T06:52:46.597Z,12.97
2018-12-02T06:55:27.001Z,12.30
2018-12-02T06:58:37.870Z,12.83
2018-12-02T07:01:17.093Z,12.67
2018-12-02T07:04:07.329Z,12.33
2018-12-02T07:06:35.511Z,12.50
2018-12-02T07:09:04.010Z,11.90
2018-12-02T07:11:32.205Z,11.53
2018-12-02T07:14:00.386Z,12.17
2018-12-02T07:16:28.566Z,11.60
2018-12-02T07:18:59.139Z,11.73
2018-12-02T07:21:32.806Z,11.30
2018-12-02T07:24:02.953Z,11.87
2018-12-02T07:26:38.829Z,11.63
2018-12-02T07:29:07.005Z,11.67
2018-12-02T07:31:35.177Z,11.50
2018-12-02T07:34:03.366Z,11.70
2018-12-02T07:36:31.553Z,12.53
2018-12-02T07:39:09.248Z,11.70
2018-12-02T07:41:37.405Z,11.87
2018-12-02T07:44:05.690Z,12.37
2018-12-02T07:46:33.855Z,11.87
2018-12-02T07:49:02.037Z,11.87
2018-12-02T07:51:30.230Z,12.50
2018-12-02T07:53:58.385Z,12.60
2018-12-02T07:56:26.707Z,12.60
2018-12-02T07:58:54.874Z,12.60
2018-12-02T08:01:23.040Z,12.50
2018-12-02T08:03:51.310Z,12.40
2018-12-02T08:06:19.489Z,13.10
2018-12-02T08:08:47.862Z,14.30
2018-12-02T08:11:16.017Z,12.67
2018-12-02T08:13:44.202Z,12.27
2018-12-02T08:16:12.374Z,12.30
2018-12-02T08:18:40.546Z,11.97
2018-12-02T08:21:08.722Z,12.00
2018-12-02T08:23:36.888Z,12.30
2018-12-02T08:26:05.476Z,11.30
2018-12-02T08:28:33.709Z,11.20
2018-12-02T08:31:01.878Z,12.10
2018-12-02T08:33:30.038Z,11.67
2018-12-02T08:35:58.200Z,11.83
2018-12-02T08:38:26.360Z,12.40
2018-12-02T08:40:54.549Z,12.07
2018-12-02T08:43:22.730Z,13.10
2018-12-02T08:45:50.933Z,12.40
2018-12-02T08:48:19.089Z,12.33
2018-12-02T08:50:47.256Z,11.90
2018-12-02T08:53:15.426Z,11.77
2018-12-02T08:55:43.675Z,12.00
2018-12-02T08:58:11.847Z,12.10
2018-12-02T09:00:40.026Z,12.93
2018-12-02T09:03:09.498Z,12.60
2018-12-02T09:05:37.693Z,12.93
2018-12-02T09:08:07.284Z,12.80
2018-12-02T09:10:35.457Z,12.40
2018-12-02T09:13:05.566Z,12.70
2018-12-02T09:15:33.755Z,12.53
2018-12-02T09:18:01.971Z,12.50
2018-12-02T09:20:32.013Z,13.20
2018-12-02T09:23:00.241Z,13.40
2018-12-02T09:25:28.511Z,13.00
2018-12-02T09:27:56.778Z,12.83
2018-12-02T09:30:26.394Z,12.40
2018-12-02T09:32:56.203Z,12.30
2018-12-02T09:35:24.432Z,12.43
2018-12-02T09:37:52.582Z,13.10
2018-12-02T09:40:20.814Z,13.27
2018-12-02T09:42:50.935Z,12.43
2018-12-02T09:45:21.373Z,29.30
2018-12-02T09:47:49.591Z,12.63
2018-12-02T09:50:18.063Z,12.00
2018-12-02T09:52:46.249Z,11.70
2018-12-02T09:55:21.761Z,12.10
2018-12-02T09:57:50.626Z,11.93
2018-12-02T10:00:19.889Z,12.53
2018-12-02T10:02:48.130Z,11.80
2018-12-02T10:05:16.335Z,12.00
2018-12-02T10:07:44.509Z,12.50
2018-12-02T10:10:15.833Z,11.97
2018-12-02T10:12:46.448Z,12.60
2018-12-02T10:15:15.572Z,12.20
2018-12-02T10:17:43.757Z,12.43
2018-12-02T10:20:14.685Z,12.80
2018-12-02T10:22:43.241Z,13.33
2018-12-02T10:25:12.675Z,12.20
2018-12-02T10:27:40.909Z,12.80
2018-12-02T10:30:14.556Z,12.70
2018-12-02T10:32:42.874Z,12.10
2018-12-02T10:35:11.163Z,12.37
2018-12-02T10:37:39.405Z,12.50
2018-12-02T10:40:13.684Z,12.07
2018-12-02T10:42:42.193Z,11.30
2018-12-02T10:45:12.597Z,12.63
2018-12-02T10:47:40.854Z,12.07
2018-12-02T10:50:15.810Z,12.70
2018-12-02T10:52:43.988Z,12.30
2018-12-02T10:55:16.368Z,12.43
2018-12-02T10:57:44.761Z,12.60
2018-12-02T11:00:15.541Z,13.23
2018-12-02T11:02:45.597Z,12.87
2018-12-02T11:05:14.277Z,13.47
2018-12-02T11:07:43.059Z,13.30
2018-12-02T11:10:12.357Z,13.40
2018-12-02T11:12:40.534Z,13.03
2018-12-02T11:15:12.413Z,13.10
2018-12-02T11:17:40.711Z,13.63
2018-12-02T11:20:10.813Z,13.90
2018-12-02T11:22:39.017Z,13.97
2018-12-02T11:25:10.370Z,13.87
2018-12-02T11:27:39.570Z,13.37
2018-12-02T11:30:17.277Z,13.40
2018-12-02T11:32:46.561Z,12.70
2018-12-02T11:35:15.809Z,12.90
2018-12-02T11:37:44.172Z,13.93
2018-12-02T11:40:13.746Z,13.40
2018-12-02T11:42:41.913Z,13.40
2018-12-02T11:45:13.936Z,12.90
2018-12-02T11:47:43.233Z,13.67
2018-12-02T11:50:12.501Z,13.43
2018-12-02T11:52:40.697Z,13.70
2018-12-02T11:55:10.134Z,13.70
2018-12-02T11:57:38.775Z,13.40
2018-12-02T12:00:19.389Z,13.20
2018-12-02T12:02:47.691Z,13.17
2018-12-02T12:05:15.945Z,15.00
2018-12-02T12:07:44.795Z,13.80
2018-12-02T12:10:14.021Z,14.10
2018-12-02T12:12:43.451Z,14.07
2018-12-02T12:15:18.271Z,14.80
2018-12-02T12:17:47.366Z,15.67
2018-12-02T12:20:17.334Z,15.37
2018-12-02T12:22:45.550Z,15.07
2018-12-02T12:25:13.741Z,15.27
2018-12-02T12:27:42.140Z,15.33
2018-12-02T12:30:14.896Z,15.70
2018-12-02T12:32:43.091Z,15.20
2018-12-02T12:35:12.429Z,15.20
2018-12-02T12:37:40.633Z,15.00
2018-12-02T12:40:40.317Z,15.67
2018-12-02T12:43:40.421Z,16.30
2018-12-02T12:46:08.797Z,15.60
2018-12-02T12:48:36.974Z,16.30
2018-12-02T12:51:05.152Z,15.50
2018-12-02T12:53:33.336Z,15.77
2018-12-02T12:56:01.518Z,15.80
2018-12-02T12:58:29.701Z,15.40
2018-12-02T13:00:57.884Z,15.37
2018-12-02T13:03:26.064Z,15.50
2018-12-02T13:05:54.229Z,15.67
2018-12-02T13:08:22.429Z,16.27
2018-12-02T13:10:50.585Z,15.27
2018-12-02T13:13:18.777Z,15.60
2018-12-02T13:15:46.955Z,15.33
2018-12-02T13:18:15.137Z,16.00
2018-12-02T13:20:47.699Z,16.07
2018-12-02T13:23:15.878Z,16.30
2018-12-02T13:25:44.053Z,16.63
2018-12-02T13:28:12.257Z,16.07
2018-12-02T13:30:40.432Z,16.37
2018-12-02T13:33:08.640Z,16.27
2018-12-02T13:35:37.637Z,14.73
2018-12-02T13:38:06.088Z,16.50
2018-12-02T13:40:34.411Z,14.07
2018-12-02T13:43:18.817Z,13.23
2018-12-02T13:45:47.627Z,12.60
2018-12-02T13:48:15.839Z,12.53
2018-12-02T13:50:44.030Z,12.33
2018-12-02T13:53:12.234Z,12.77
2018-12-02T13:55:40.464Z,12.87
2018-12-02T13:58:08.705Z,11.83
2018-12-02T14:00:38.708Z,11.93
2018-12-02T14:03:09.373Z,10.60
2018-12-02T14:05:41.021Z,11.67
2018-12-02T14:08:09.323Z,11.63
2018-12-02T14:10:37.489Z,11.63
2018-12-02T14:13:08.520Z,10.73
2018-12-02T14:15:46.191Z,11.80
2018-12-02T14:18:22.688Z,11.13
2018-12-02T14:20:50.860Z,11.40
2018-12-02T14:23:19.075Z,11.43
2018-12-02T14:25:47.423Z,12.00
2018-12-02T14:28:18.914Z,11.67
2018-12-02T14:30:47.219Z,11.10
2018-12-02T14:33:15.413Z,12.97
2018-12-02T14:35:43.656Z,12.73
2018-12-02T14:38:12.083Z,12.90
2018-12-02T14:40:40.495Z,12.90
2018-12-02T14:43:08.997Z,12.90
2018-12-02T14:45:37.400Z,12.87
2018-12-02T14:48:06.354Z,13.30
2018-12-02T14:50:34.680Z,14.70
2018-12-02T14:53:04.154Z,14.30
2018-12-02T14:55:32.790Z,14.13
2018-12-02T14:58:01.042Z,14.60
2018-12-02T15:00:29.279Z,16.07
2018-12-02T15:02:57.500Z,15.60
2018-12-02T15:05:25.690Z,15.30
2018-12-02T15:07:53.895Z,15.70
2018-12-02T15:10:22.075Z,16.00
2018-12-02T15:12:50.318Z,14.53
2018-12-02T15:15:18.873Z,15.53
2018-12-02T15:17:47.963Z,15.63
2018-12-02T15:20:17.462Z,16.10
2018-12-02T15:22:45.642Z,15.37
2018-12-02T15:25:14.973Z,15.10
2018-12-02T15:27:44.136Z,14.53
2018-12-02T15:30:19.186Z,15.10
2018-12-02T15:32:49.812Z,14.23
2018-12-02T15:35:18.362Z,13.93
2018-12-02T15:37:46.768Z,13.97
2018-12-02T15:40:16.667Z,14.03
2018-12-02T15:42:46.874Z,14.00
2018-12-02T15:45:15.796Z,14.77
2018-12-02T15:47:44.313Z,14.10
2018-12-02T15:50:19.653Z,14.70
2018-12-02T15:52:48.074Z,15.70
2018-12-02T15:55:19.857Z,15.10
2018-12-02T15:57:48.041Z,15.20
2018-12-02T16:00:19.645Z,15.63
2018-12-02T16:02:47.854Z,15.70
2018-12-02T16:05:16.174Z,15.60
2018-12-02T16:07:44.349Z,15.60
2018-12-02T16:10:13.533Z,15.63
2018-12-02T16:12:42.914Z,15.60
2018-12-02T16:15:13.238Z,16.07
2018-12-02T16:17:41.557Z,15.10
2018-12-02T16:20:13.174Z,14.40
2018-12-02T16:22:41.521Z,14.33
2018-12-02T16:25:10.292Z,14.47
2018-12-02T16:27:38.480Z,14.83
2018-12-02T16:30:18.445Z,14.47
2018-12-02T16:32:53.652Z,14.37
2018-12-02T16:35:22.915Z,14.63
2018-12-02T16:37:52.202Z,14.80
2018-12-02T16:40:21.661Z,14.10
2018-12-02T16:42:50.644Z,13.40
2018-12-02T16:45:19.184Z,13.97
2018-12-02T16:47:48.610Z,13.33
2018-12-02T16:50:25.868Z,14.13
2018-12-02T16:52:56.304Z,13.77
2018-12-02T16:55:26.423Z,14.03
2018-12-02T16:57:58.141Z,13.97
2018-12-02T17:00:44.149Z,13.43
2018-12-02T17:03:12.337Z,12.80
2018-12-02T17:05:40.534Z,12.70
2018-12-02T17:08:08.830Z,13.13
2018-12-02T17:10:36.994Z,13.17
2018-12-02T17:13:06.108Z,13.13
2018-12-02T17:15:34.666Z,13.10
2018-12-02T17:18:02.942Z,12.83
2018-12-02T17:20:31.419Z,13.70
2018-12-02T17:22:59.702Z,13.63
2018-12-02T17:25:28.204Z,13.37
2018-12-02T17:27:56.629Z,13.20
2018-12-02T17:31:30.779Z,13.20
2018-12-02T17:33:58.991Z,13.23
2018-12-02T17:36:27.262Z,14.00
2018-12-02T17:38:59.156Z,14.20
2018-12-02T17:41:27.362Z,14.77
2018-12-02T17:43:55.630Z,13.23
2018-12-02T17:46:24.005Z,13.30
2018-12-02T17:48:52.345Z,13.90
2018-12-02T17:51:21.521Z,13.90
2018-12-02T17:53:50.002Z,13.43
2018-12-02T17:56:18.349Z,12.47
2018-12-02T17:58:46.629Z,12.70
2018-12-02T18:01:16.030Z,12.70
2018-12-02T18:03:44.342Z,13.70
2018-12-02T18:06:12.537Z,13.60
2018-12-02T18:08:40.747Z,13.20
2018-12-02T18:11:08.997Z,13.47
2018-12-02T18:13:37.194Z,13.17
2018-12-02T18:16:05.393Z,13.23
2018-12-02T18:18:33.602Z,13.40
2018-12-02T18:21:02.036Z,12.40
2018-12-02T18:23:30.450Z,12.90
2018-12-02T18:25:58.631Z,13.30
2018-12-02T18:28:26.812Z,13.67
2018-12-02T18:30:54.990Z,14.10
2018-12-02T18:33:23.198Z,13.77
2018-12-02T18:36:02.178Z,13.60
2018-12-02T18:38:32.357Z,13.40
2018-12-02T18:41:09.565Z,12.90
2018-12-02T18:43:37.832Z,13.37
2018-12-02T18:46:06.838Z,12.67
2018-12-02T18:48:35.049Z,12.30
2018-12-02T18:51:03.277Z,12.00
2018-12-02T18:53:31.530Z,12.00
2018-12-02T18:55:59.729Z,12.27
2018-12-02T18:58:27.953Z,12.27
2018-12-02T19:00:56.153Z,12.60
2018-12-02T19:03:25.202Z,12.33
2018-12-02T19:05:53.805Z,13.00
2018-12-02T19:08:22.111Z,11.13
2018-12-02T19:10:54.396Z,9.87
2018-12-02T19:13:22.802Z,9.77
2018-12-02T19:15:51.090Z,9.83
2018-12-02T19:18:19.633Z,9.87
2018-12-02T19:20:49.132Z,10.90
2018-12-02T19:23:22.635Z,10.13
2018-12-02T19:25:51.018Z,10.63
2018-12-02T19:28:19.321Z,10.50
2018-12-02T19:30:48.385Z,10.40
2018-12-02T19:33:19.274Z,9.70
2018-12-02T19:35:47.765Z,10.10
2018-12-02T19:38:18.669Z,10.70
2018-12-02T19:40:47.227Z,11.13
2018-12-02T19:43:16.068Z,11.27
2018-12-02T19:45:44.672Z,11.87
2018-12-02T19:48:13.170Z,11.07
2018-12-02T19:50:41.672Z,11.17
2018-12-02T19:53:09.921Z,10.40
2018-12-02T19:55:38.214Z,10.23
2018-12-02T19:58:08.490Z,9.67
2018-12-02T20:00:41.481Z,10.53
2018-12-02T20:03:10.534Z,10.53
2018-12-02T20:05:39.453Z,10.50
2018-12-02T20:08:10.417Z,10.50
2018-12-02T20:10:39.373Z,10.20
2018-12-02T20:13:09.942Z,9.80
2018-12-02T20:15:42.317Z,10.63
2018-12-02T20:18:10.788Z,11.53
2018-12-02T20:20:45.882Z,11.33
2018-12-02T20:23:14.514Z,12.10
2018-12-02T20:25:42.869Z,12.50
2018-12-02T20:28:12.485Z,12.57
2018-12-02T20:30:40.821Z,12.33
2018-12-02T20:33:09.252Z,12.60
2018-12-02T20:35:37.701Z,12.00
2018-12-02T20:38:06.371Z,12.67
2018-12-02T20:40:34.698Z,12.40
2018-12-02T20:43:03.096Z,11.87
2018-12-02T20:45:31.519Z,12.60
2018-12-02T20:47:59.843Z,12.80
2018-12-02T20:50:28.128Z,13.33
2018-12-02T20:52:56.631Z,13.63
2018-12-02T20:55:26.080Z,13.47
2018-12-02T20:57:58.934Z,14.60
2018-12-02T21:00:27.285Z,14.50
2018-12-02T21:02:59.281Z,14.10
2018-12-02T21:05:33.334Z,14.40
2018-12-02T21:08:01.623Z,14.77
2018-12-02T21:10:29.926Z,15.20
2018-12-02T21:12:58.245Z,14.27
2018-12-02T21:15:26.650Z,13.80
2018-12-02T21:17:55.082Z,14.53
2018-12-02T21:20:23.241Z,14.80
2018-12-02T21:22:51.469Z,14.50
2018-12-02T21:25:20.938Z,14.53
2018-12-02T21:27:49.162Z,13.93
2018-12-02T21:30:21.589Z,14.37
2018-12-02T21:32:49.771Z,14.53
2018-12-02T21:35:18.112Z,14.17
2018-12-02T21:37:46.645Z,13.97
2018-12-02T21:40:15.840Z,14.87
2018-12-02T21:42:44.041Z,15.80
2018-12-02T21:45:13.344Z,15.57
2018-12-02T21:47:43.232Z,15.40
2018-12-02T21:50:15.734Z,15.20
2018-12-02T21:52:43.914Z,15.80
2018-12-02T21:55:12.090Z,15.40
2018-12-02T21:57:40.271Z,15.60
2018-12-02T22:00:22.522Z,15.80
2018-12-02T22:02:51.648Z,15.90
2018-12-02T22:05:19.833Z,16.33
2018-12-02T22:07:48.361Z,16.13
2018-12-02T22:10:18.932Z,16.30
2018-12-02T22:12:47.122Z,16.30
2018-12-02T22:15:15.285Z,16.30
2018-12-02T22:17:43.459Z,16.50
2018-12-02T22:20:12.952Z,16.70
2018-12-02T22:22:41.174Z,17.50
2018-12-02T22:25:11.537Z,17.40
2018-12-02T22:27:39.717Z,16.97
2018-12-02T22:30:10.469Z,17.13
2018-12-02T22:32:45.236Z,18.83
2018-12-02T22:35:14.270Z,18.60
2018-12-02T22:37:42.841Z,17.97
2018-12-02T22:40:19.821Z,17.70
2018-12-02T22:42:47.996Z,17.53
2018-12-02T22:45:20.322Z,17.80
2018-12-02T22:47:48.472Z,18.17
2018-12-02T22:50:18.478Z,18.67
2018-12-02T22:52:48.865Z,18.70
2018-12-02T22:55:17.033Z,18.73
2018-12-02T22:57:45.220Z,18.83
2018-12-02T23:00:21.536Z,18.93
2018-12-02T23:02:57.402Z,19.60
2018-12-02T23:05:25.609Z,18.50
2018-12-02T23:07:53.780Z,19.47
2018-12-02T23:10:21.996Z,19.73
2018-12-02T23:12:56.778Z,18.87
2018-12-02T23:15:24.956Z,19.83
2018-12-02T23:17:53.130Z,19.63
2018-12-02T23:20:21.317Z,20.23
2018-12-02T23:22:49.582Z,21.97
2018-12-02T23:25:17.746Z,21.53
2018-12-02T23:27:45.972Z,21.70
2018-12-02T23:30:15.370Z,22.10
2018-12-02T23:32:43.585Z,21.00
2018-12-02T23:35:11.778Z,20.50
2018-12-02T23:37:39.990Z,20.03
2018-12-02T23:40:13.504Z,18.87
2018-12-02T23:42:41.710Z,20.20
2018-12-02T23:45:11.781Z,19.43
2018-12-02T23:47:39.973Z,19.27
2018-12-02T23:50:10.102Z,19.40
2018-12-02T23:52:38.297Z,18.87
2018-12-02T23:55:09.421Z,18.30
2018-12-02T23:57:37.618Z,18.80
